Time;durP1;ratioP1;P1;durP2;ratioP2;P2;SDS_P1;SDS_P2;PMS_P1;PMS_P2;Temp;Humidity;BMP_temperature;BMP_pressure;BME280_temperature;BME280_humidity;BME280_pressure;Samples;Min_cycle;Max_cycle;Signal;HPM_P1;HPM_P2
2023/12/20 00:01:22;;;;;;;;;;;12.50;50.50;;;12.60;53.46;100462.50;5056828;28;20027;-38
2023/12/20 00:03:50;;;;;;;;;;;12.50;50.60;;;12.60;53.74;100470.94;5053016;28;19931;-38
2023/12/20 00:06:18;;;;;;;;;;;12.50;50.60;;;12.59;53.80;100474.16;5066425;28;19982;-38
2023/12/20 00:08:47;;;;;;;;;;;12.40;50.50;;;12.58;53.79;100482.44;5063165;28;19986;-37
2023/12/20 00:11:15;;;;;;;;;;;12.40;50.50;;;12.58;53.73;100477.41;5066404;28;19968;-37
2023/12/20 00:13:43;;;;;;;;;;;12.40;50.60;;;12.55;53.57;100472.00;5064893;28;19967;-36
2023/12/20 00:16:11;;;;;;;;;;;12.40;50.50;;;12.54;53.90;100465.19;5059353;28;20015;-37
2023/12/20 00:18:39;;;;;;;;;;;12.40;50.50;;;12.53;53.81;100467.50;5052715;28;19925;-37
2023/12/20 00:21:07;;;;;;;;;;;12.40;50.60;;;12.52;53.09;100471.63;5060989;28;20311;-36
2023/12/20 00:23:35;;;;;;;;;;;12.40;50.60;;;12.47;54.06;100467.69;5053190;28;20007;-36
2023/12/20 00:26:05;;;;;;;;;;;12.30;50.60;;;12.48;53.96;100472.00;5064047;28;19924;-37
2023/12/20 00:28:32;;;;;;;;;;;12.30;50.70;;;12.47;54.32;100472.69;5065334;28;19924;-37
2023/12/20 00:31:00;;;;;;;;;;;12.30;50.70;;;12.44;53.67;100477.38;5053724;28;19991;-38
2023/12/20 00:33:29;;;;;;;;;;;12.30;50.70;;;12.47;53.85;100475.22;5059996;28;20344;-37
2023/12/20 00:35:57;;;;;;;;;;;12.30;50.70;;;12.45;54.06;100479.19;5061718;28;19960;-38
2023/12/20 00:38:25;;;;;;;;;;;12.30;50.80;;;12.47;53.50;100477.72;5061053;28;19931;-38
2023/12/20 00:40:53;;;;;;;;;;;12.30;50.70;;;12.48;53.58;100466.97;5063021;28;19925;-37
2023/12/20 00:43:22;;;;;;;;;;;12.30;50.70;;;12.52;53.68;100481.69;5073241;28;19925;-37
2023/12/20 00:45:50;;;;;;;;;;;12.30;50.70;;;12.54;53.42;100475.22;5072444;28;19924;-37
2023/12/20 00:48:18;;;;;;;;;;;12.40;50.70;;;12.56;53.44;100476.31;5073515;28;19925;-38
2023/12/20 00:50:46;;;;;;;;;;;12.30;50.60;;;12.60;53.62;100486.00;5072886;28;19928;-38
2023/12/20 00:53:14;;;;;;;;;;;12.30;50.60;;;12.61;53.18;100487.81;5059785;28;20271;-37
2023/12/20 00:55:44;;;;;;;;;;;12.40;50.60;;;12.62;53.77;100488.72;5060761;28;19931;-38
2023/12/20 00:58:12;;;;;;;;;;;12.40;50.60;;;12.64;53.66;100488.19;5064802;28;19986;-37
2023/12/20 01:00:42;;;;;;;;;;;12.40;50.60;;;12.66;53.54;100496.78;5056528;28;19925;-38
2023/12/20 01:03:11;;;;;;;;;;;12.40;50.50;;;12.65;53.29;100495.00;5050135;28;19937;-38
2023/12/20 01:05:39;;;;;;;;;;;12.40;50.50;;;12.69;53.32;100492.16;5068225;28;19954;-37
2023/12/20 01:08:08;;;;;;;;;;;12.40;50.40;;;12.69;53.24;100494.66;5048988;28;19925;-38
2023/12/20 01:10:35;;;;;;;;;;;12.40;50.40;;;12.68;53.63;100490.34;5065173;28;19935;-38
2023/12/20 01:13:04;;;;;;;;;;;12.40;50.40;;;12.68;53.47;100502.00;5063711;28;20417;-38
2023/12/20 01:15:32;;;;;;;;;;;12.40;50.40;;;12.67;53.09;100503.63;5065624;28;19944;-37
2023/12/20 01:18:01;;;;;;;;;;;12.40;50.40;;;12.68;53.02;100495.38;5063478;28;19925;-37
2023/12/20 01:20:29;;;;;;;;;;;12.40;50.40;;;12.69;53.46;100497.19;5064611;28;20380;-38
2023/12/20 01:22:57;;;;;;;;;;;12.40;50.40;;;12.68;53.49;100502.91;5061852;28;20453;-37
2023/12/20 01:25:25;;;;;;;;;;;12.50;50.40;;;12.68;53.10;100500.41;5052632;28;19929;-37
2023/12/20 01:27:53;;;;;;;;;;;12.50;50.40;;;12.68;53.05;100500.41;5068893;28;19929;-37
2023/12/20 01:30:21;;;;;;;;;;;12.50;50.40;;;12.65;53.26;100492.47;5052718;28;20364;-37
2023/12/20 01:32:49;;;;;;;;;;;12.50;50.40;;;12.67;53.47;100507.75;5070102;28;19947;-37
2023/12/20 01:35:18;;;;;;;;;;;12.50;50.40;;;12.65;53.10;100505.03;5059890;28;19929;-38
2023/12/20 01:37:46;;;;;;;;;;;12.50;50.40;;;12.65;53.59;100502.53;5068473;28;19939;-37
2023/12/20 01:40:15;;;;;;;;;;;12.50;50.40;;;12.62;53.46;100499.69;5052031;28;19925;-37
2023/12/20 01:42:43;;;;;;;;;;;12.50;50.30;;;12.62;53.48;100504.69;5052127;28;19972;-38
2023/12/20 01:45:11;;;;;;;;;;;12.50;50.90;;;12.61;53.69;100512.94;5059374;28;19978;-37
2023/12/20 01:47:39;;;;;;;;;;;12.50;50.40;;;12.61;53.57;100517.97;5067629;28;19932;-37
2023/12/20 01:50:08;;;;;;;;;;;12.40;50.30;;;12.59;53.84;100514.38;5075699;28;19967;-38
2023/12/20 01:52:38;;;;;;;;;;;12.40;50.30;;;12.58;53.45;100516.72;5067255;28;20012;-37
2023/12/20 01:55:12;;;;;;;;;;;12.40;50.30;;;12.57;53.79;100514.94;5064786;28;19935;-37
2023/12/20 01:57:40;;;;;;;;;;;12.40;50.40;;;12.56;53.48;100519.06;5063074;28;19924;-37
2023/12/20 02:00:09;;;;;;;;;;;12.40;50.50;;;12.56;53.57;100524.06;5058993;28;19925;-38
2023/12/20 02:02:38;;;;;;;;;;;12.40;50.40;;;12.53;53.59;100526.22;5064404;28;20023;-37
2023/12/20 02:05:06;;;;;;;;;;;12.40;50.50;;;12.51;53.95;100530.16;5063317;28;20406;-37
2023/12/20 02:07:35;;;;;;;;;;;12.40;50.60;;;12.49;53.41;100527.47;5063510;28;19970;-38
2023/12/20 02:10:05;;;;;;;;;;;12.30;50.60;;;12.48;54.13;100527.28;5072116;28;19924;-37
2023/12/20 02:12:33;;;;;;;;;;;12.30;50.60;;;12.47;53.42;100533.00;5070700;28;19925;-37
2023/12/20 02:15:01;;;;;;;;;;;12.30;50.70;;;12.46;53.63;100536.22;5058621;28;20011;-38
2023/12/20 02:17:29;;;;;;;;;;;12.30;50.80;;;12.45;54.42;100526.94;5066865;28;19925;-38
2023/12/20 02:19:56;;;;;;;;;;;12.30;50.90;;;12.42;54.22;100526.53;5065734;28;20415;-38
2023/12/20 02:22:26;;;;;;;;;;;12.30;50.80;;;12.43;53.94;100525.84;5055335;28;19931;-38
2023/12/20 02:24:54;;;;;;;;;;;12.30;50.80;;;12.43;53.87;100524.22;5063422;28;19925;-37
2023/12/20 02:27:22;;;;;;;;;;;12.30;50.90;;;12.37;54.15;100515.94;5054402;28;19925;-37
2023/12/20 02:29:50;;;;;;;;;;;12.30;50.90;;;12.44;54.49;100528.53;5064167;28;19931;-38
2023/12/20 02:32:18;;;;;;;;;;;12.30;50.80;;;12.44;54.45;100518.47;5062538;28;19925;-37
2023/12/20 02:34:48;;;;;;;;;;;12.30;50.90;;;12.44;54.18;100508.44;5071952;28;20007;-38
2023/12/20 02:37:16;;;;;;;;;;;12.30;50.80;;;12.48;53.69;100510.59;5051238;28;19973;-38
2023/12/20 02:39:45;;;;;;;;;;;12.30;50.80;;;12.52;52.99;100514.34;5067391;28;20303;-38
2023/12/20 02:42:13;;;;;;;;;;;12.30;50.70;;;12.53;53.82;100503.59;5059890;28;19932;-37
2023/12/20 02:44:41;;;;;;;;;;;12.30;50.70;;;12.55;53.88;100507.19;5076383;28;19968;-37
2023/12/20 02:47:09;;;;;;;;;;;12.30;50.60;;;12.58;54.41;100511.69;5066054;28;19947;-37
2023/12/20 02:49:37;;;;;;;;;;;12.30;50.70;;;12.57;53.73;100513.31;5067903;28;19924;-38
2023/12/20 02:52:05;;;;;;;;;;;12.30;50.70;;;12.61;53.46;100517.06;5075137;28;19942;-38
2023/12/20 02:54:33;;;;;;;;;;;12.40;50.70;;;12.59;52.98;100514.38;5067718;28;20404;-37
2023/12/20 02:57:03;;;;;;;;;;;12.40;50.70;;;12.61;53.61;100507.94;5063172;28;19932;-38
2023/12/20 02:59:31;;;;;;;;;;;12.40;50.60;;;12.62;52.60;100504.69;5068779;28;19929;-37
2023/12/20 03:01:59;;;;;;;;;;;12.40;50.50;;;12.66;52.72;100501.81;5066173;28;19951;-38
2023/12/20 03:04:27;;;;;;;;;;;12.40;50.50;;;12.65;53.30;100505.03;5067956;28;19929;-37
2023/12/20 03:06:55;;;;;;;;;;;12.40;50.50;;;12.65;53.84;100500.03;5073552;28;19934;-38
2023/12/20 03:09:23;;;;;;;;;;;12.40;50.40;;;12.62;53.40;100504.69;5066546;28;19977;-38
2023/12/20 03:11:50;;;;;;;;;;;12.40;50.40;;;12.66;53.60;100506.84;5065519;28;19931;-38
2023/12/20 03:14:20;;;;;;;;;;;12.40;50.30;;;12.65;52.78;100510.06;5066239;28;19944;-37
2023/12/20 03:16:48;;;;;;;;;;;12.40;50.30;;;12.65;53.01;100505.03;5073720;28;19924;-37
2023/12/20 03:19:16;;;;;;;;;;;12.40;50.30;;;12.63;53.63;100501.47;5074157;28;20307;-37
2023/12/20 03:21:44;;;;;;;;;;;12.40;50.30;;;12.63;53.71;100496.44;5057662;28;19925;-37
2023/12/20 03:24:12;;;;;;;;;;;12.50;50.30;;;12.63;52.85;100509.03;5062356;28;19924;-37
2023/12/20 03:26:40;;;;;;;;;;;12.50;50.30;;;12.63;52.67;100506.50;5053086;28;20319;-37
2023/12/20 03:29:07;;;;;;;;;;;12.50;50.30;;;12.62;53.19;100494.66;5056255;28;19970;-37
2023/12/20 03:31:37;;;;;;;;;;;12.50;50.20;;;12.60;52.83;100496.06;5067106;28;20041;-37
2023/12/20 03:34:05;;;;;;;;;;;12.50;50.30;;;12.61;53.53;100496.97;5055746;28;19925;-37
2023/12/20 03:36:33;;;;;;;;;;;12.50;50.30;;;12.60;53.17;100500.19;5064380;28;20015;-37
2023/12/20 03:39:01;;;;;;;;;;;12.50;50.20;;;12.59;53.23;100509.34;5064163;28;20351;-37
2023/12/20 03:41:29;;;;;;;;;;;12.40;50.20;;;12.57;53.56;100503.25;5067091;28;19948;-37
2023/12/20 03:43:57;;;;;;;;;;;12.40;50.20;;;12.54;53.55;100500.38;5053468;28;19935;-38
2023/12/20 03:46:25;;;;;;;;;;;12.40;50.30;;;12.52;53.82;100506.81;5059072;28;20407;-36
2023/12/20 03:48:54;;;;;;;;;;;12.40;50.30;;;12.50;54.25;100513.28;5053216;28;19929;-36
2023/12/20 03:51:22;;;;;;;;;;;12.40;50.40;;;12.47;53.17;100507.88;5064525;28;20347;-37
2023/12/20 03:53:50;;;;;;;;;;;12.30;50.40;;;12.45;53.68;100509.34;5064718;28;19932;-37
2023/12/20 03:56:18;;;;;;;;;;;12.30;50.50;;;12.43;54.64;100500.69;5060264;28;20390;-37
2023/12/20 03:58:46;;;;;;;;;;;12.30;50.60;;;12.40;53.45;100501.22;5053194;28;19925;-38
2023/12/20 04:01:13;;;;;;;;;;;12.30;50.60;;;12.38;53.47;100504.28;5063391;28;19924;-37
2023/12/20 04:03:42;;;;;;;;;;;12.30;50.70;;;12.38;54.10;100501.78;5090469;22;19968;-32
2023/12/20 04:06:11;;;;;;;;;;;12.20;50.70;;;12.37;53.70;100505.00;5071735;28;19924;-33
2023/12/20 04:08:39;;;;;;;;;;;12.20;50.80;;;12.36;54.06;100508.22;5064133;28;19932;-31
2023/12/20 04:11:07;;;;;;;;;;;12.20;50.90;;;12.35;54.31;100507.31;5072343;28;20269;-32
2023/12/20 04:13:34;;;;;;;;;;;12.20;50.80;;;12.32;53.77;100501.03;5066748;28;19925;-32
2023/12/20 04:16:02;;;;;;;;;;;12.20;50.90;;;12.36;53.81;100513.25;5061491;28;20011;-31
2023/12/20 04:18:31;;;;;;;;;;;12.20;50.90;;;12.36;54.08;100505.72;5072308;28;20388;-32
2023/12/20 04:20:59;;;;;;;;;;;12.20;50.80;;;12.35;54.28;100492.25;5072394;28;19924;-35
2023/12/20 04:23:29;;;;;;;;;;;12.20;50.80;;;12.38;54.06;100496.75;5072507;28;19976;-36
2023/12/20 04:25:57;;;;;;;;;;;12.20;50.80;;;12.40;53.75;100496.19;5071665;28;19924;-31
2023/12/20 04:28:25;;;;;;;;;;;12.20;50.70;;;12.43;54.01;100490.66;5072272;28;19932;-30
2023/12/20 04:30:53;;;;;;;;;;;12.20;50.70;;;12.47;53.92;100492.81;5071661;28;20019;-41
2023/12/20 04:33:21;;;;;;;;;;;12.30;50.70;;;12.48;53.58;100499.63;5071836;28;20308;-31
2023/12/20 04:35:49;;;;;;;;;;;12.30;50.70;;;12.50;53.52;100498.22;5071754;28;19931;-31
2023/12/20 04:38:16;;;;;;;;;;;12.30;50.70;;;12.51;53.59;100479.91;5072389;28;19925;-33
2023/12/20 04:40:46;;;;;;;;;;;12.30;50.60;;;12.53;53.58;100483.47;5056490;28;19925;-34
2023/12/20 04:43:13;;;;;;;;;;;12.30;50.60;;;12.54;52.73;100485.28;5051731;28;20338;-33
2023/12/20 04:45:41;;;;;;;;;;;12.30;50.60;;;12.57;53.87;100485.66;5051014;28;19925;-33
2023/12/20 04:48:09;;;;;;;;;;;12.40;50.60;;;12.59;53.07;100488.34;5070597;28;20010;-32
2023/12/20 04:50:37;;;;;;;;;;;12.40;50.50;;;12.59;53.45;100484.22;5063710;28;19924;-30
2023/12/20 04:53:05;;;;;;;;;;;12.40;50.50;;;12.62;53.67;100483.69;5053721;28;20011;-30
2023/12/20 04:55:33;;;;;;;;;;;12.40;50.40;;;12.63;53.04;100478.84;5065022;28;20011;-33
2023/12/20 04:58:03;;;;;;;;;;;12.40;50.40;;;12.63;53.23;100471.31;5063062;28;20360;-33
2023/12/20 05:00:31;;;;;;;;;;;12.40;50.30;;;12.63;53.65;100481.38;5065305;28;19924;-34
2023/12/20 05:02:59;;;;;;;;;;;12.40;50.30;;;12.65;53.04;100479.00;5062439;28;20372;-33
2023/12/20 05:05:27;;;;;;;;;;;12.40;50.30;;;12.66;52.86;100481.72;5063607;28;19930;-35
2023/12/20 05:07:55;;;;;;;;;;;12.40;50.20;;;12.63;52.29;100465.38;5063710;28;19931;-42
2023/12/20 05:10:23;;;;;;;;;;;12.40;50.20;;;12.66;53.30;100474.19;5063937;28;19947;-32
2023/12/20 05:12:51;;;;;;;;;;;12.40;50.20;;;12.65;52.82;100479.00;5071712;28;19968;-34
2023/12/20 05:15:20;;;;;;;;;;;12.50;50.20;;;12.63;53.22;100486.41;5071948;28;19932;-34
2023/12/20 05:17:48;;;;;;;;;;;12.50;50.20;;;12.62;53.08;100489.63;5071464;28;19977;-31
2023/12/20 05:20:16;;;;;;;;;;;12.50;50.10;;;12.61;53.31;100482.78;5071715;28;20338;-33
2023/12/20 05:22:45;;;;;;;;;;;12.50;50.10;;;12.61;53.26;100487.81;5062121;28;19925;-31
2023/12/20 05:25:12;;;;;;;;;;;12.50;50.10;;;12.58;53.43;100486.56;5074921;28;19984;-37
2023/12/20 05:27:40;;;;;;;;;;;12.50;50.10;;;12.57;52.81;100490.69;5068573;28;20195;-31
2023/12/20 05:30:09;;;;;;;;;;;12.40;50.10;;;12.54;53.99;100480.25;5063449;28;19932;-31
2023/12/20 05:32:38;;;;;;;;;;;12.40;50.10;;;12.52;53.67;100481.69;5055227;28;19925;-33
2023/12/20 05:35:07;;;;;;;;;;;12.40;50.20;;;12.49;52.90;100491.38;5064643;28;19978;-31
2023/12/20 05:37:35;;;;;;;;;;;12.40;50.30;;;12.46;53.69;100491.00;5074413;28;19931;-36
2023/12/20 05:40:04;;;;;;;;;;;12.30;50.30;;;12.42;53.59;100484.72;5075187;28;20098;-30
2023/12/20 05:42:32;;;;;;;;;;;12.30;50.40;;;12.41;53.95;100482.03;5074780;28;20012;-33
2023/12/20 05:44:59;;;;;;;;;;;12.30;50.50;;;12.35;53.76;100473.75;5058113;28;20398;-32
2023/12/20 05:47:27;;;;;;;;;;;12.20;50.50;;;12.36;53.24;100483.09;5054715;28;19924;-34
2023/12/20 05:49:57;;;;;;;;;;;12.20;50.60;;;12.31;53.81;100471.59;5054924;28;20296;-33
2023/12/20 05:52:25;;;;;;;;;;;12.20;50.60;;;12.33;53.73;100480.22;5055150;28;19929;-30
2023/12/20 05:54:53;;;;;;;;;;;12.20;50.70;;;12.30;53.54;100477.34;5054724;28;19932;-31
2023/12/20 05:57:21;;;;;;;;;;;12.20;50.80;;;12.30;53.79;100487.38;5053989;28;19925;-31
2023/12/20 05:59:48;;;;;;;;;;;12.10;50.80;;;12.28;54.25;100494.72;5054574;28;19991;-32
2023/12/20 06:02:16;;;;;;;;;;;12.10;50.80;;;12.28;54.55;100482.16;5073072;28;19928;-32
2023/12/20 06:04:44;;;;;;;;;;;12.10;50.80;;;12.28;54.39;100473.72;5064405;28;20014;-33
2023/12/20 06:07:13;;;;;;;;;;;12.10;50.80;;;12.30;54.19;100487.38;5053734;28;19975;-31
2023/12/20 06:09:42;;;;;;;;;;;12.10;50.80;;;12.30;54.16;100492.41;5054316;28;19936;-36
2023/12/20 06:12:10;;;;;;;;;;;12.10;50.80;;;12.31;54.22;100491.69;5072342;28;20340;-34
2023/12/20 06:14:38;;;;;;;;;;;12.10;50.70;;;12.33;53.65;100487.75;5060596;28;19925;-37
2023/12/20 06:17:05;;;;;;;;;;;12.20;50.80;;;12.35;54.07;100492.25;5054299;28;20202;-31
2023/12/20 06:19:33;;;;;;;;;;;12.20;50.80;;;12.37;53.73;100495.84;5069565;28;20019;-31
2023/12/20 06:22:01;;;;;;;;;;;12.20;50.70;;;12.40;53.12;100492.78;5053903;28;19932;-30
2023/12/20 06:24:33;;;;;;;;;;;12.20;50.60;;;12.44;53.51;100497.47;5058324;28;19924;-31
2023/12/20 06:27:01;;;;;;;;;;;12.20;50.60;;;12.45;53.75;100490.13;5073295;28;19931;-31
2023/12/20 06:29:31;;;;;;;;;;;12.20;50.50;;;12.48;52.89;100489.59;5073561;28;20414;-30
2023/12/20 06:31:58;;;;;;;;;;;12.30;50.50;;;12.45;53.47;100469.13;5073630;28;19936;-31
2023/12/20 06:34:26;;;;;;;;;;;12.30;50.50;;;12.52;53.87;100486.72;5074060;28;19932;-32
2023/12/20 06:36:55;;;;;;;;;;;12.30;50.50;;;12.54;53.59;100487.78;5073163;28;19928;-32
2023/12/20 06:39:22;;;;;;;;;;;12.30;50.40;;;12.57;53.50;100488.19;5053977;28;19931;-33
2023/12/20 06:41:52;;;;;;;;;;;12.40;51.00;;;12.58;53.50;100484.97;5053642;28;19925;-32
2023/12/20 06:44:20;;;;;;;;;;;12.40;50.40;;;12.59;52.84;100484.22;5053282;28;19932;-31
2023/12/20 06:46:48;;;;;;;;;;;12.40;50.30;;;12.60;53.46;100493.56;5052918;28;19925;-31
2023/12/20 06:49:15;;;;;;;;;;;12.40;50.30;;;12.54;53.48;100490.31;5063885;28;19931;-32
2023/12/20 06:51:43;;;;;;;;;;;12.40;50.30;;;12.61;53.28;100485.31;5073801;28;20292;-31
2023/12/20 06:54:11;;;;;;;;;;;12.40;50.30;;;12.64;53.18;100483.19;5073370;28;19925;-31
2023/12/20 06:56:39;;;;;;;;;;;12.40;50.20;;;12.64;52.87;100488.19;5072961;28;19924;-33
2023/12/20 06:59:08;;;;;;;;;;;12.40;50.20;;;12.67;52.97;100481.00;5072833;28;19971;-32
2023/12/20 07:01:36;;;;;;;;;;;12.40;50.20;;;12.67;53.16;100488.53;5073168;28;19971;-35
2023/12/20 07:04:05;;;;;;;;;;;12.40;50.10;;;12.66;53.29;100491.78;5063949;28;19990;-31
2023/12/20 07:06:33;;;;;;;;;;;12.50;50.10;;;12.65;53.39;100500.03;5060258;28;19972;-32
2023/12/20 07:09:01;;;;;;;;;;;12.50;50.10;;;12.63;53.82;100496.44;5061420;28;19958;-40
2023/12/20 07:11:29;;;;;;;;;;;12.50;50.00;;;12.61;52.86;100487.81;5072713;28;19930;-31
2023/12/20 07:13:57;;;;;;;;;;;12.50;50.00;;;12.59;52.72;100499.28;5064688;28;19931;-32
2023/12/20 07:16:26;;;;;;;;;;;12.50;50.00;;;12.60;52.50;100496.06;5072416;28;19928;-34
2023/12/20 07:18:54;;;;;;;;;;;12.50;50.00;;;12.57;53.75;100490.69;5072875;28;20380;-31
2023/12/20 07:21:22;;;;;;;;;;;12.40;50.00;;;12.53;52.92;100493.53;5072642;28;19939;-31
2023/12/20 07:23:50;;;;;;;;;;;12.40;50.10;;;12.47;53.09;100497.84;5057529;28;19925;-31
2023/12/20 07:26:18;;;;;;;;;;;12.40;50.20;;;12.47;53.02;100502.84;5052246;28;20019;-31
2023/12/20 07:28:46;;;;;;;;;;;12.40;50.20;;;12.37;53.70;100489.91;5052791;28;20015;-32
2023/12/20 07:31:16;;;;;;;;;;;12.30;50.20;;;12.40;53.53;100510.38;5052626;28;19924;-32
2023/12/20 07:33:45;;;;;;;;;;;12.30;50.40;;;12.37;53.65;100510.03;5060787;28;20307;-32
2023/12/20 07:36:13;;;;;;;;;;;12.20;50.40;;;12.34;53.39;100514.66;5052086;28;19925;-37
2023/12/20 07:38:41;;;;;;;;;;;12.20;50.50;;;12.32;53.37;100506.06;5057769;28;19924;-37
2023/12/20 07:41:10;;;;;;;;;;;12.20;50.60;;;12.31;54.61;100501.75;5062819;28;19931;-33
2023/12/20 07:43:38;;;;;;;;;;;12.20;50.60;;;12.28;53.80;100503.88;5052299;28;20023;-31
2023/12/20 07:46:06;;;;;;;;;;;12.20;50.70;;;12.24;53.90;100509.25;5060340;28;19928;-31
2023/12/20 07:48:35;;;;;;;;;;;12.10;50.70;;;12.21;54.24;100511.38;5072225;28;20395;-33
2023/12/20 07:51:05;;;;;;;;;;;12.10;50.70;;;12.25;53.92;100506.03;5071995;28;20003;-32
2023/12/20 07:53:34;;;;;;;;;;;12.10;50.80;;;12.25;54.64;100519.50;5057381;28;20380;-37
2023/12/20 07:56:01;;;;;;;;;;;12.10;50.80;;;12.21;54.38;100501.34;5072440;28;19963;-34
2023/12/20 07:58:31;;;;;;;;;;;12.10;50.90;;;12.24;53.98;100502.63;5045687;28;20267;-36
2023/12/20 08:01:17;;;;;;;;;;;12.10;50.90;;;12.25;54.21;100493.47;5052946;28;19976;-31
2023/12/20 08:03:45;;;;;;;;;;;12.10;50.90;;;12.25;54.04;100503.53;5055953;28;19925;-33
2023/12/20 08:06:14;;;;;;;;;;;12.10;50.90;;;12.28;54.34;100503.88;5051627;28;19925;-33
2023/12/20 08:08:42;;;;;;;;;;;12.10;50.80;;;12.32;53.72;100511.09;5052078;28;19928;-33
2023/12/20 08:11:12;;;;;;;;;;;12.10;50.70;;;12.29;53.34;100499.03;5051904;28;19925;-31
2023/12/20 08:13:39;;;;;;;;;;;12.10;50.70;;;12.41;53.14;100507.16;5056838;28;19925;-31
2023/12/20 08:16:08;;;;;;;;;;;12.20;50.60;;;12.41;53.83;100492.97;5071191;28;20358;-31
2023/12/20 08:18:36;;;;;;;;;;;12.20;50.60;;;12.45;53.40;100499.28;5072027;28;19947;-31
2023/12/20 08:21:04;;;;;;;;;;;12.20;50.50;;;12.47;53.56;100503.75;5071859;28;19932;-31
2023/12/20 08:23:33;;;;;;;;;;;12.20;50.50;;;12.48;53.52;100493.00;5055732;28;19931;-36
2023/12/20 08:26:04;;;;;;;;;;;12.30;50.50;;;12.52;52.88;100496.75;5071215;28;20291;-32
2023/12/20 08:28:32;;;;;;;;;;;12.30;50.40;;;12.55;53.55;100492.13;5055720;28;19924;-34
2023/12/20 08:31:00;;;;;;;;;;;12.30;50.30;;;12.55;53.47;100497.16;5072090;28;19977;-33
2023/12/20 08:33:29;;;;;;;;;;;12.30;50.20;;;12.60;53.26;100496.06;5071825;28;20011;-31
2023/12/20 08:35:57;;;;;;;;;;;12.40;50.30;;;12.61;52.79;100487.81;5071317;28;19925;-33
2023/12/20 08:38:25;;;;;;;;;;;12.40;50.30;;;12.64;52.79;100490.72;5052534;28;20427;-33
2023/12/20 08:40:54;;;;;;;;;;;12.40;50.20;;;12.64;53.27;100478.16;5066517;28;19940;-33
2023/12/20 08:43:22;;;;;;;;;;;12.40;50.20;;;12.68;52.93;100485.31;5072415;28;20018;-31
2023/12/20 08:45:50;;;;;;;;;;;12.40;50.20;;;12.66;52.89;100476.69;5071401;28;19932;-31
2023/12/20 08:48:17;;;;;;;;;;;12.40;50.10;;;12.63;52.41;100466.28;5071588;28;19982;-31
2023/12/20 08:50:48;;;;;;;;;;;12.50;50.00;;;12.67;52.97;100478.50;5067259;28;19925;-32
2023/12/20 08:53:17;;;;;;;;;;;12.50;50.00;;;12.69;52.59;100469.53;5053226;28;19931;-36
2023/12/20 08:55:45;;;;;;;;;;;12.50;49.90;;;12.67;52.68;100473.47;5060253;28;20007;-33
2023/12/20 08:58:14;;;;;;;;;;;12.50;49.80;;;12.49;52.66;100438.63;5058395;28;19937;-36
2023/12/20 09:00:42;;;;;;;;;;;12.50;49.90;;;12.65;52.51;100459.81;5056135;28;20028;-31
2023/12/20 09:03:10;;;;;;;;;;;12.50;49.90;;;12.65;52.36;100472.38;5054734;28;19983;-30
2023/12/20 09:05:38;;;;;;;;;;;12.50;49.90;;;12.65;52.42;100474.88;5054737;28;20012;-30
2023/12/20 09:08:07;;;;;;;;;;;12.50;49.90;;;12.64;52.39;100465.56;5055389;28;20007;-32
2023/12/20 09:10:35;;;;;;;;;;;12.50;49.80;;;12.60;52.86;100460.88;5047632;28;19929;-32
2023/12/20 09:13:04;;;;;;;;;;;12.40;49.80;;;12.57;53.42;100465.56;5055540;28;19924;-33
2023/12/20 09:15:34;;;;;;;;;;;12.40;49.90;;;12.50;53.01;100470.56;5054753;28;19924;-32
2023/12/20 09:18:04;;;;;;;;;;;12.40;49.90;;;12.47;53.66;100452.59;5063103;28;19924;-31
2023/12/20 09:20:32;;;;;;;;;;;12.40;50.10;;;12.44;52.90;100452.25;5071546;28;19925;-31
2023/12/20 09:23:00;;;;;;;;;;;12.30;50.10;;;12.42;53.21;100453.66;5063499;28;19932;-31
2023/12/20 09:25:29;;;;;;;;;;;12.30;50.10;;;12.38;53.30;100454.03;5055145;28;19933;-30
2023/12/20 09:27:57;;;;;;;;;;;12.30;50.60;;;12.34;53.91;100444.31;5055713;28;20303;-32
2023/12/20 09:30:26;;;;;;;;;;;12.20;50.20;;;12.33;53.71;100447.56;5054896;28;19928;-34
2023/12/20 09:32:56;;;;;;;;;;;12.20;50.40;;;12.31;53.49;100446.47;5054757;28;19947;-32
2023/12/20 09:35:24;;;;;;;;;;;12.20;50.50;;;12.19;53.85;100427.44;5054700;28;20319;-33
2023/12/20 09:37:52;;;;;;;;;;;12.20;50.50;;;11.79;54.00;100356.47;5060554;28;19932;-30
2023/12/20 09:40:20;;;;;;;;;;;12.10;50.50;;;12.26;53.40;100440.00;5074799;28;20011;-32
2023/12/20 09:42:50;;;;;;;;;;;12.10;50.60;;;12.25;53.98;100428.16;5074766;28;20023;-32
2023/12/20 09:45:18;;;;;;;;;;;12.10;50.70;;;12.25;54.19;100424.03;5056756;28;19981;-31
2023/12/20 09:47:46;;;;;;;;;;;12.10;50.70;;;12.25;53.58;100418.13;5067036;28;19924;-33
2023/12/20 09:50:15;;;;;;;;;;;12.10;50.70;;;12.24;54.01;100422.22;5057913;28;19932;-31
2023/12/20 09:52:43;;;;;;;;;;;12.10;50.80;;;12.25;53.69;100418.13;5054482;28;19925;-37
2023/12/20 09:55:11;;;;;;;;;;;12.10;50.80;;;12.26;53.43;100419.91;5071363;28;19925;-33
2023/12/20 09:57:40;;;;;;;;;;;12.10;50.70;;;12.30;53.52;100422.06;5073968;28;19939;-32
2023/12/20 10:00:09;;;;;;;;;;;12.10;50.60;;;12.31;54.11;100418.84;5074196;28;19929;-37
2023/12/20 10:02:37;;;;;;;;;;;12.10;50.60;;;12.37;53.20;100409.53;5045782;28;20392;-30
2023/12/20 10:05:08;;;;;;;;;;;12.20;50.60;;;12.40;53.48;100407.34;5062361;28;19925;-31
2023/12/20 10:07:38;;;;;;;;;;;12.20;50.50;;;12.43;53.23;100421.19;5057435;28;20015;-33
2023/12/20 10:10:08;;;;;;;;;;;12.20;50.40;;;12.46;53.22;100421.53;5074302;28;19924;-31
2023/12/20 10:12:36;;;;;;;;;;;12.30;50.50;;;12.48;52.86;100421.72;5073944;28;19929;-33
2023/12/20 10:15:05;;;;;;;;;;;12.30;50.40;;;12.48;52.89;100415.09;5074246;28;19978;-33
2023/12/20 10:17:33;;;;;;;;;;;12.30;50.40;;;12.53;53.51;100410.59;5073451;28;19924;-32
2023/12/20 10:20:02;;;;;;;;;;;12.30;50.30;;;12.53;53.51;100408.09;5073956;28;19925;-31
2023/12/20 10:22:30;;;;;;;;;;;12.30;50.20;;;12.45;53.11;100398.78;5063037;28;19925;-34
2023/12/20 10:24:59;;;;;;;;;;;12.30;50.30;;;12.56;53.06;100403.44;5053895;28;20383;-37
2023/12/20 10:27:27;;;;;;;;;;;12.30;50.30;;;12.59;52.98;100408.81;5063728;28;19924;-30
2023/12/20 10:29:55;;;;;;;;;;;12.30;50.30;;;12.59;52.98;100403.78;5074145;28;20019;-31
2023/12/20 10:32:24;;;;;;;;;;;12.40;50.30;;;12.57;53.05;100400.22;5073818;28;19924;-31
2023/12/20 10:34:53;;;;;;;;;;;12.40;50.30;;;12.61;53.13;100397.34;5073802;28;19951;-35
2023/12/20 10:37:21;;;;;;;;;;;12.40;50.20;;;12.65;52.39;100389.41;5072976;28;20302;-33
2023/12/20 10:39:51;;;;;;;;;;;12.40;50.20;;;12.65;52.56;100393.56;5073417;28;19970;-33
2023/12/20 10:42:20;;;;;;;;;;;12.40;50.10;;;12.63;52.18;100385.84;5072799;28;19929;-34
2023/12/20 10:44:48;;;;;;;;;;;12.40;50.00;;;12.68;52.97;100394.81;5066735;28;19967;-32
2023/12/20 10:47:16;;;;;;;;;;;12.50;50.00;;;12.68;53.15;100389.78;5072959;28;19924;-31
2023/12/20 10:49:44;;;;;;;;;;;12.50;50.00;;;12.65;53.02;100394.44;5065344;28;19924;-30
2023/12/20 10:52:12;;;;;;;;;;;12.50;50.00;;;12.51;52.87;100369.34;5073551;28;19931;-31
2023/12/20 10:54:41;;;;;;;;;;;12.50;49.90;;;12.68;52.56;100386.38;5058437;28;19978;-31
2023/12/20 10:57:09;;;;;;;;;;;12.50;49.90;;;12.67;53.15;100388.00;5072899;28;19987;-36
2023/12/20 10:59:38;;;;;;;;;;;12.50;49.90;;;12.65;53.10;100384.41;5053505;28;19924;-36
2023/12/20 11:02:06;;;;;;;;;;;12.50;49.90;;;12.61;53.57;100382.25;5053111;28;20019;-31
2023/12/20 11:04:40;;;;;;;;;;;12.50;49.90;;;12.59;53.36;100382.78;5060879;28;20422;-33
2023/12/20 11:07:14;;;;;;;;;;;12.50;50.00;;;12.54;53.33;100378.84;5052504;28;19990;-31
2023/12/20 11:09:43;;;;;;;;;;;12.40;50.10;;;12.49;53.23;100380.81;5057536;28;19967;-32
2023/12/20 11:12:14;;;;;;;;;;;12.40;50.20;;;12.46;53.96;100385.47;5073394;28;20012;-34
2023/12/20 11:14:46;;;;;;;;;;;12.30;50.20;;;12.43;53.44;100375.06;5057363;28;19931;-32